Aérodrome :







RETROUVEZ-NOUS SUR...

 
LOGIN :

S'inscrire | Disclaimer

   EN    FR    IT 

 









Légende :    VFR   VFR Marginal   IFR   IFR Intensif   IFR Très Intensif
Visi : 
Plafond : 
>= 8 km
>= 3000ft
5 à 8 km
1000 à 3000 ft
1500m à 5 km
500 à 1000 ft
800 à 1500m
200 à 500 ft
< 800m
< 200 ft
Symboles :   Orages  Brouillard  Fortes neiges  Fortes précipitations  Vent > 20 kt






- Altitude de l'aérodrome : 271 ft


KBAF - Barnes Municipal

DERNIER METAR :
  • 122253Z 32015G24KT 10SM CLR M03/M11 A2998 RMK AO2 PK WND 32026/2226 SLP158 T10281111

METARs EXPIRÉS :
  • 122153Z 31010G18KT 10SM CLR M03/M10 A2995 RMK AO2 PK WND 30026/2118 SLP146 T10281100
  • 122053Z 30017G21KT 10SM CLR M03/M09 A2993 RMK AO2 SLP140 T10281094 51027

TAF KBAF
Valide du 12 à 21h jusqu'au 13 à 18h UTC


122121Z 1221/1318 30017G27KT P6SM BKN150
FM122300 32018G30KT P6SM SCT050
FM130800 31012KT P6SM SKC
FM131400 32014G24KT P6SM SKC



MET'MAP, la Météo Aéronautique d'un coup d'oeil ! - Copyright ORBIFLY Décembre 2007 - Disclaimer

ORBIFLY MET'MAP TEAM :

Programmation & Développement : Alexandra Zaïnal
Conception & Développement : Baudouin d'Aumeries
Co-Programmation & Développement : Marc-Olivier Méhu
Soutien technique & logistique : Manuel Goepfert

Contact : metmap@orbifly.com




SOURCES & CREDITS :

   NOAA